Alder, Washington
Current Conditions -  °F | °C
As of 5:58 AM on Tuesday 21 Oct 2014 (Local Time) from KGRF Reporting Station
Broken Clouds Broken Clouds  
Wind Chill: 53°   Ceiling: 11000
Heat Index: 53°   Visibility: 10mi
Dew Point: 51°   Wind: 10mph
Humidity: 93%   Direction: 170°S
Pressure: 29.86"   Gusts: NA
Location:  46.8687°N, 122.208°W
Report Text: KGRF 211258Z AUTO 17009KT 10SM FEW034 SCT075 BKN110 12/11 A2986 RMK AO2 SLPNO P0000 T01190108 PWINO $
Loading
Personal Weather Stations






























Interactive Weather Map
Tropical Storm Tracking
New forecast layout! Learn more

10-Day Weather Forecast

Advertisements
Track Severe Weather on mobile